DNMN

Minna Airport

Minna, Nigeria
METAR DNMN 191100Z 10006KT 1000 HZ 30/07 Q1011 NOSIG
Observed Flight Rules
Dec-19 @ 11:00 UTC (an hour ago)
Wind Visibility Conditions
100° at 6 knots 998 meters
  • Haze
Temperatures Readings
Current 30°C / 86°F
Dewpoint 7°C / 45°F
Humidity 24%
Altimeter 29.85" Hg
Pressure 1011 hPa
Elevation 254
METAR DNMN 191100Z 10006KT 1000 HZ 30/07 Q1011 NOSIG
Observed Flight Rules
Dec-19 @ 11:00 UTC
(an hour ago)
Wind Visibility
100° at 6 knots 998 meters
Conditions
  • Haze
Temperature Dewpoint
30°C / 86°F 7°C / 45°F
Humidity Altimeter Pressure
24% 29.85" Hg 1011 hPa